createdAt,value
2022-10-09T03:01:21.244Z,101019.41
2022-10-09T03:03:50.053Z,101011.66
2022-10-09T03:06:20.923Z,101022.06
2022-10-09T03:08:51.327Z,101014.09
2022-10-09T03:11:22.879Z,101010.56
2022-10-09T03:13:54.361Z,101015.81
2022-10-09T03:16:26.927Z,101008.94
2022-10-09T03:18:55.878Z,101021.00
2022-10-09T03:21:27.488Z,101021.84
2022-10-09T03:23:56.606Z,101023.50
2022-10-09T03:26:27.539Z,101018.34
2022-10-09T03:28:57.125Z,101008.81
2022-10-09T03:34:17.181Z,101016.50
2022-10-09T03:36:45.774Z,101014.69
2022-10-09T03:39:14.141Z,101027.38
2022-10-09T03:41:42.614Z,101022.13
2022-10-09T03:44:11.115Z,101030.66
2022-10-09T03:46:41.179Z,101024.75
2022-10-09T03:49:09.762Z,101023.84
2022-10-09T03:51:38.444Z,101029.06
2022-10-09T03:54:07.461Z,101034.31
2022-10-09T03:56:35.815Z,101036.72
2022-10-09T03:59:05.683Z,101028.88
2022-10-09T04:01:34.487Z,101025.31
2022-10-09T04:04:04.368Z,101032.03
2022-10-09T04:06:32.861Z,101031.03
2022-10-09T04:09:01.543Z,101033.47
2022-10-09T04:11:29.924Z,101029.09
2022-10-09T04:13:58.277Z,101032.66
2022-10-09T04:16:26.748Z,101029.22
2022-10-09T04:18:55.118Z,101031.88
2022-10-09T04:21:24.883Z,101033.50
2022-10-09T04:23:53.624Z,101036.19
2022-10-09T04:26:22.032Z,101026.50
2022-10-09T04:28:50.421Z,101032.53
2022-10-09T04:31:18.938Z,101028.25
2022-10-09T04:33:47.286Z,101024.63
2022-10-09T04:36:15.614Z,101024.63
2022-10-09T04:38:45.333Z,101028.94
2022-10-09T04:41:14.371Z,101024.69
2022-10-09T04:43:42.692Z,101034.09
2022-10-09T04:46:14.867Z,101030.56
2022-10-09T04:48:46.462Z,101026.22
2022-10-09T04:51:15.939Z,101028.88
2022-10-09T04:53:46.516Z,101019.47
2022-10-09T04:56:18.031Z,101017.66
2022-10-09T04:58:48.164Z,101018.41
2022-10-09T05:01:19.555Z,101014.88
2022-10-09T05:03:48.058Z,101017.31
2022-10-09T05:06:18.060Z,101018.88
2022-10-09T05:08:48.392Z,101015.34
2022-10-09T05:11:19.415Z,101009.38
2022-10-09T05:13:51.407Z,101013.53
2022-10-09T05:16:23.198Z,101010.97
2022-10-09T05:18:54.052Z,101011.84
2022-10-09T05:21:23.540Z,101010.28
2022-10-09T05:23:55.060Z,101016.34
2022-10-09T05:26:26.223Z,101015.53
2022-10-09T05:28:54.868Z,101013.00
2022-10-09T05:31:25.996Z,101001.78
2022-10-09T05:33:55.032Z,101013.81
2022-10-09T05:36:23.820Z,101018.94
2022-10-09T05:38:53.509Z,101024.09
2022-10-09T05:41:21.876Z,101024.19
2022-10-09T05:43:51.523Z,101017.31
2022-10-09T05:46:23.442Z,101020.59
2022-10-09T05:48:54.966Z,101018.13
2022-10-09T05:51:26.524Z,101012.09
2022-10-09T05:53:57.733Z,101011.25
2022-10-09T05:56:28.629Z,101015.53
2022-10-09T05:58:59.322Z,101016.53
2022-10-09T06:01:30.456Z,101013.06
2022-10-09T06:04:00.739Z,101012.25
2022-10-09T06:06:31.786Z,101010.53
2022-10-09T06:09:01.582Z,101006.28
2022-10-09T06:11:32.502Z,101004.59
2022-10-09T06:14:02.712Z,101005.13
2022-10-09T06:16:34.953Z,101017.16
2022-10-09T06:19:04.654Z,101013.09
2022-10-09T06:21:33.933Z,101019.38
2022-10-09T06:24:06.166Z,101020.44
2022-10-09T06:26:35.664Z,101026.38
2022-10-09T06:29:04.972Z,101019.50
2022-10-09T06:31:34.144Z,101022.84
2022-10-09T06:34:04.850Z,101023.81
2022-10-09T06:36:35.935Z,101019.41
2022-10-09T06:39:08.483Z,101023.50
2022-10-09T06:41:37.509Z,101020.84
2022-10-09T06:44:24.196Z,101021.75
2022-10-09T06:46:52.894Z,101020.00
2022-10-09T06:49:21.338Z,101025.19
2022-10-09T06:51:50.000Z,101025.22
2022-10-09T06:54:19.746Z,101026.25
2022-10-09T06:56:48.176Z,101033.31
2022-10-09T06:59:16.650Z,101031.63
2022-10-09T07:01:45.139Z,101030.81
2022-10-09T07:04:17.725Z,101036.09
2022-10-09T07:06:47.845Z,101031.84
2022-10-09T07:09:17.425Z,101032.75
2022-10-09T07:11:50.056Z,101038.72
2022-10-09T07:14:19.185Z,101035.41
2022-10-09T07:16:49.980Z,101036.28
2022-10-09T07:19:19.908Z,101033.56
2022-10-09T07:21:50.519Z,101045.63
2022-10-09T07:24:20.635Z,101034.56
2022-10-09T07:26:51.063Z,101034.63
2022-10-09T07:29:20.701Z,101045.06
2022-10-09T07:31:49.904Z,101034.72
2022-10-09T07:34:18.343Z,101041.53
2022-10-09T07:36:46.801Z,101048.47
2022-10-09T07:39:15.114Z,101045.22
2022-10-09T07:41:44.116Z,101044.41
2022-10-09T07:44:13.852Z,101052.41
2022-10-09T07:46:42.255Z,101047.38
2022-10-09T07:49:10.754Z,101044.00
2022-10-09T07:51:39.369Z,101043.34
2022-10-09T07:54:07.867Z,101052.19
2022-10-09T07:56:38.619Z,101047.16
2022-10-09T07:59:09.731Z,101036.66
2022-10-09T08:01:40.816Z,101038.59
2022-10-09T08:04:09.808Z,101039.66
2022-10-09T08:06:38.288Z,101046.50
2022-10-09T08:09:09.142Z,101040.59
2022-10-09T08:11:40.644Z,101042.50
2022-10-09T08:14:13.169Z,101035.00
2022-10-09T08:16:45.160Z,101033.44
2022-10-09T08:19:13.528Z,101034.03
2022-10-09T08:21:41.920Z,101033.81
2022-10-09T08:24:13.089Z,101021.19
2022-10-09T08:26:42.494Z,101022.28
2022-10-09T08:29:13.916Z,101015.09
2022-10-09T08:31:42.729Z,101019.22
2022-10-09T08:34:12.476Z,101015.31
2022-10-09T08:36:40.969Z,101021.19
2022-10-09T08:39:09.403Z,101020.28
2022-10-09T08:41:45.336Z,101013.84
2022-10-09T08:44:20.455Z,101015.84
2022-10-09T08:47:00.593Z,101017.47
2022-10-09T08:49:38.364Z,101024.19
2022-10-09T08:52:22.952Z,101016.69
2022-10-09T08:54:52.413Z,101016.94
2022-10-09T08:57:24.341Z,101013.63
2022-10-09T08:59:52.750Z,101011.63
2022-10-09T09:02:37.176Z,101005.38
2022-10-09T09:05:31.466Z,101006.06
2022-10-09T09:08:09.081Z,100997.78
2022-10-09T09:10:44.757Z,100997.25
2022-10-09T09:13:36.315Z,100988.44
2022-10-09T09:16:11.551Z,100987.53
2022-10-09T09:18:46.567Z,100991.38
2022-10-09T09:21:32.868Z,100983.44
2022-10-09T09:24:04.890Z,100983.69
2022-10-09T09:26:33.287Z,100970.72
2022-10-09T09:29:06.365Z,100966.41
2022-10-09T09:31:38.514Z,100966.22
2022-10-09T09:34:12.944Z,100967.22
2022-10-09T09:36:50.369Z,100949.22
2022-10-09T09:40:15.033Z,100952.72
2022-10-09T09:42:17.616Z,100947.28
2022-10-09T09:44:54.973Z,100949.81
2022-10-09T09:47:29.128Z,100946.75
2022-10-09T09:50:00.967Z,100938.38
2022-10-09T09:52:36.819Z,100931.25
2022-10-09T09:55:06.966Z,100926.56
2022-10-09T09:57:39.923Z,100921.91
2022-10-09T10:00:20.358Z,100911.16
2022-10-09T10:02:49.014Z,100907.50
2022-10-09T10:05:26.216Z,100911.50
2022-10-09T10:07:57.760Z,100904.34
2022-10-09T10:10:28.525Z,100907.09
2022-10-09T10:12:59.268Z,100892.88
2022-10-09T10:15:31.069Z,100899.84
2022-10-09T10:18:03.867Z,100900.56
2022-10-09T10:20:34.600Z,100902.69
2022-10-09T10:23:04.379Z,100900.78
2022-10-09T10:25:35.314Z,100893.25
2022-10-09T10:28:13.944Z,100892.44
2022-10-09T10:30:43.986Z,100882.50
2022-10-09T10:33:21.826Z,100879.72
2022-10-09T10:35:53.788Z,100881.66
2022-10-09T10:38:31.229Z,100878.81
2022-10-09T10:41:12.669Z,100867.00
2022-10-09T10:43:45.802Z,100872.03
2022-10-09T10:46:23.699Z,100853.00
2022-10-09T10:48:52.324Z,100865.09
2022-10-09T10:52:01.496Z,100863.28
2022-10-09T10:54:39.032Z,100857.47
2022-10-09T10:57:17.825Z,100859.81
2022-10-09T11:00:03.956Z,100850.53
2022-10-09T11:03:27.867Z,100843.63
2022-10-09T11:06:00.447Z,100839.56
2022-10-09T11:08:51.036Z,100835.19
2022-10-09T11:11:28.614Z,100840.13
2022-10-09T11:14:08.349Z,100828.16
2022-10-09T11:17:01.434Z,100830.53
2022-10-09T11:19:54.301Z,100825.03
2022-10-09T11:22:36.738Z,100823.56
2022-10-09T11:25:21.371Z,100809.72
2022-10-09T11:27:56.036Z,100802.13
2022-10-09T11:30:26.605Z,100794.28
2022-10-09T11:33:03.719Z,100797.59
2022-10-09T11:35:40.614Z,100795.22
2022-10-09T11:38:26.445Z,100789.59
2022-10-09T11:40:57.832Z,100790.22
2022-10-09T11:44:08.896Z,100788.16
2022-10-09T11:46:50.221Z,100787.16
2022-10-09T11:49:26.730Z,100776.97
2022-10-09T11:52:01.910Z,100772.84
2022-10-09T11:54:30.875Z,100770.59
2022-10-09T11:57:02.709Z,100765.84
2022-10-09T11:59:36.946Z,100761.69
